createdAt,value
2019-05-19T00:00:48.239Z,0.00
2019-05-19T00:01:48.233Z,0.00
2019-05-19T00:02:48.327Z,0.00
2019-05-19T00:03:48.205Z,0.00
2019-05-19T00:04:48.206Z,0.00
2019-05-19T00:05:48.177Z,0.00
2019-05-19T00:06:48.169Z,0.00
2019-05-19T00:07:48.194Z,0.00
2019-05-19T00:08:48.151Z,0.00
2019-05-19T00:09:48.140Z,0.00
2019-05-19T00:10:48.129Z,0.00
2019-05-19T00:11:48.119Z,0.00
2019-05-19T00:12:48.111Z,0.00
2019-05-19T00:13:48.108Z,0.00
2019-05-19T00:14:48.079Z,0.00
2019-05-19T00:15:48.072Z,0.00
2019-05-19T00:16:48.072Z,0.00
2019-05-19T00:17:48.076Z,0.00
2019-05-19T00:18:48.039Z,0.00
2019-05-19T00:19:48.030Z,0.00
2019-05-19T00:20:48.012Z,0.00
2019-05-19T00:21:47.999Z,0.00
2019-05-19T00:22:47.988Z,0.00
2019-05-19T00:23:47.999Z,0.00
2019-05-19T00:24:48.001Z,0.00
2019-05-19T00:25:47.957Z,0.00
2019-05-19T00:26:47.946Z,0.00
2019-05-19T00:27:47.939Z,0.00
2019-05-19T00:28:47.934Z,0.00
2019-05-19T00:29:47.918Z,0.00
2019-05-19T00:30:47.911Z,0.00
2019-05-19T00:31:47.892Z,0.00
2019-05-19T00:32:47.878Z,0.00
2019-05-19T00:33:47.866Z,0.00
2019-05-19T00:34:47.880Z,0.00
2019-05-19T00:35:47.845Z,0.00
2019-05-19T00:36:47.836Z,0.00
2019-05-19T00:37:47.824Z,0.00
2019-05-19T00:38:47.825Z,0.00
2019-05-19T00:39:47.798Z,0.00
2019-05-19T00:40:47.812Z,0.00
2019-05-19T00:41:47.777Z,0.00
2019-05-19T00:42:47.763Z,0.00
2019-05-19T00:43:47.771Z,0.00
2019-05-19T00:44:47.759Z,0.00
2019-05-19T00:45:47.736Z,0.00
2019-05-19T00:46:47.723Z,0.00
2019-05-19T00:47:47.706Z,0.00
2019-05-19T00:48:47.697Z,0.00
2019-05-19T00:49:47.702Z,0.00
2019-05-19T00:50:47.681Z,0.00
2019-05-19T00:51:47.665Z,0.00
2019-05-19T00:52:47.665Z,0.00
2019-05-19T00:53:47.642Z,0.00
2019-05-19T00:54:47.668Z,0.00
2019-05-19T00:55:47.652Z,0.00
2019-05-19T00:56:47.614Z,0.00
2019-05-19T00:57:47.596Z,0.00
2019-05-19T00:58:47.668Z,0.00
2019-05-19T00:59:47.573Z,0.00
2019-05-19T01:00:47.561Z,0.00
2019-05-19T01:01:47.566Z,0.00
2019-05-19T01:02:47.542Z,0.00
2019-05-19T01:03:47.529Z,0.00
2019-05-19T01:04:47.514Z,0.00
2019-05-19T01:05:47.517Z,0.00
2019-05-19T01:06:47.502Z,0.00
2019-05-19T01:07:47.480Z,0.00
2019-05-19T01:08:47.471Z,0.00
2019-05-19T01:09:47.459Z,0.00
2019-05-19T01:10:47.458Z,0.00
2019-05-19T01:11:47.445Z,0.00
2019-05-19T01:12:47.424Z,0.00
2019-05-19T01:13:47.416Z,0.00
2019-05-19T01:14:47.403Z,0.00
2019-05-19T01:15:47.441Z,0.00
2019-05-19T01:16:47.380Z,0.00
2019-05-19T01:17:47.367Z,0.00
2019-05-19T01:18:47.355Z,0.00
2019-05-19T01:19:55.633Z,0.00
2019-05-19T01:20:48.349Z,0.00
2019-05-19T01:21:47.330Z,0.00
2019-05-19T01:22:47.315Z,0.00
2019-05-19T01:23:47.298Z,0.00
2019-05-19T01:24:47.296Z,0.00
2019-05-19T01:25:47.297Z,0.00
2019-05-19T01:26:47.266Z,0.00
2019-05-19T01:27:47.264Z,0.00
2019-05-19T01:28:47.249Z,0.00
2019-05-19T01:29:47.234Z,0.00
2019-05-19T01:30:47.223Z,0.00
2019-05-19T01:31:47.216Z,0.00
2019-05-19T01:32:47.283Z,0.00
2019-05-19T01:33:47.188Z,0.00
2019-05-19T01:34:47.176Z,0.00
2019-05-19T01:35:47.166Z,0.00
2019-05-19T01:36:47.158Z,0.00
2019-05-19T01:37:47.140Z,0.00
2019-05-19T01:38:47.152Z,0.00
2019-05-19T01:39:47.137Z,0.00
2019-05-19T01:40:47.105Z,0.00
2019-05-19T01:41:47.093Z,0.00
2019-05-19T01:42:47.084Z,0.00
2019-05-19T01:43:47.072Z,0.00
2019-05-19T01:44:47.073Z,0.00
2019-05-19T01:45:47.046Z,0.00
2019-05-19T01:46:47.044Z,0.00
2019-05-19T01:47:47.024Z,0.00
2019-05-19T01:48:47.017Z,0.00
2019-05-19T01:49:47.009Z,0.00
2019-05-19T01:50:47.012Z,0.00
2019-05-19T01:51:46.982Z,0.00
2019-05-19T01:52:46.976Z,0.00
2019-05-19T01:53:46.971Z,0.00
2019-05-19T01:54:46.945Z,0.00
2019-05-19T01:55:46.943Z,0.00
2019-05-19T01:56:46.925Z,0.00
2019-05-19T01:57:46.914Z,0.00
2019-05-19T01:58:46.924Z,0.00
2019-05-19T01:59:46.895Z,0.00
2019-05-19T02:00:46.880Z,0.00
2019-05-19T02:01:46.870Z,0.00
2019-05-19T02:02:46.854Z,0.00
2019-05-19T02:03:46.871Z,0.00
2019-05-19T02:04:46.834Z,0.00
2019-05-19T02:05:46.821Z,0.00
2019-05-19T02:06:46.809Z,0.00
2019-05-19T02:07:46.805Z,0.00
2019-05-19T02:08:46.809Z,0.00
2019-05-19T02:09:46.792Z,0.00
2019-05-19T02:10:46.764Z,0.00
2019-05-19T02:11:46.758Z,0.00
2019-05-19T02:12:46.740Z,0.00
2019-05-19T02:13:46.731Z,0.00
2019-05-19T02:14:46.743Z,0.00
2019-05-19T02:15:46.710Z,0.00
2019-05-19T02:16:46.696Z,0.00
2019-05-19T02:17:46.687Z,0.00
2019-05-19T02:18:46.682Z,0.00
2019-05-19T02:19:46.683Z,0.00
2019-05-19T02:20:46.669Z,0.00
2019-05-19T02:21:46.641Z,0.00
2019-05-19T02:22:46.632Z,0.00
2019-05-19T02:23:46.621Z,0.00
2019-05-19T02:24:46.629Z,0.00
2019-05-19T02:25:46.618Z,0.00
2019-05-19T02:26:46.586Z,0.00
2019-05-19T02:27:46.579Z,0.00
2019-05-19T02:28:46.575Z,0.00
2019-05-19T02:29:46.568Z,0.00
2019-05-19T02:30:46.548Z,0.00
2019-05-19T02:31:46.532Z,0.00
2019-05-19T02:32:46.537Z,0.00
2019-05-19T02:33:46.517Z,0.00
2019-05-19T02:34:46.521Z,0.00
2019-05-19T02:35:46.502Z,0.00
2019-05-19T02:36:46.480Z,0.00
2019-05-19T02:37:46.468Z,0.00
2019-05-19T02:38:46.477Z,0.00
2019-05-19T02:39:46.473Z,0.00
2019-05-19T02:40:46.441Z,0.00
2019-05-19T02:41:46.423Z,0.00
2019-05-19T02:42:46.420Z,0.00
2019-05-19T02:43:46.406Z,0.00
2019-05-19T02:44:46.391Z,0.00
2019-05-19T02:45:46.396Z,0.00
2019-05-19T02:46:46.403Z,0.00
2019-05-19T02:47:46.371Z,4.00
2019-05-19T02:48:46.347Z,4.00
2019-05-19T02:49:46.351Z,4.00
2019-05-19T02:50:52.318Z,4.00
2019-05-19T02:51:47.325Z,0.00
2019-05-19T02:52:46.306Z,4.00
2019-05-19T02:53:46.299Z,4.00
2019-05-19T02:54:46.292Z,8.00
2019-05-19T02:55:46.310Z,4.00
2019-05-19T02:56:46.262Z,8.00
2019-05-19T02:57:46.249Z,4.00
2019-05-19T02:58:46.242Z,8.00
2019-05-19T02:59:46.231Z,8.00
2019-05-19T03:00:46.222Z,12.00
2019-05-19T03:01:46.254Z,12.00
2019-05-19T03:02:46.196Z,12.00
2019-05-19T03:03:46.189Z,12.00
2019-05-19T03:04:46.175Z,16.00
2019-05-19T03:05:46.165Z,16.00
2019-05-19T03:06:46.156Z,20.00
2019-05-19T03:07:46.156Z,28.00
2019-05-19T03:08:46.131Z,24.00
2019-05-19T03:09:46.121Z,32.00
2019-05-19T03:10:46.108Z,36.00
2019-05-19T03:11:46.130Z,40.00
2019-05-19T03:12:46.133Z,48.00
2019-05-19T03:13:46.076Z,52.00
2019-05-19T03:14:46.072Z,60.00
2019-05-19T03:15:46.056Z,68.00
2019-05-19T03:16:46.080Z,80.00
2019-05-19T03:17:46.032Z,88.00
2019-05-19T03:18:46.023Z,100.00
2019-05-19T03:19:46.009Z,108.00
2019-05-19T03:20:46.004Z,124.00
2019-05-19T03:21:45.992Z,136.00
2019-05-19T03:22:46.011Z,152.00
2019-05-19T03:23:45.966Z,168.00
2019-05-19T03:24:45.955Z,180.00
2019-05-19T03:25:45.954Z,196.00
2019-05-19T03:26:45.935Z,212.00
2019-05-19T03:27:45.923Z,228.00
2019-05-19T03:28:45.923Z,240.00
2019-05-19T03:29:45.902Z,260.00
2019-05-19T03:30:45.897Z,280.00
2019-05-19T03:31:45.882Z,300.00
2019-05-19T03:32:45.890Z,324.00
2019-05-19T03:33:45.891Z,348.00
2019-05-19T03:34:45.848Z,368.00
2019-05-19T03:35:45.832Z,392.00
2019-05-19T03:36:45.829Z,424.00
2019-05-19T03:37:45.825Z,452.00
2019-05-19T03:38:45.842Z,484.00
2019-05-19T03:39:45.788Z,516.00
2019-05-19T03:40:45.781Z,552.00
2019-05-19T03:41:45.770Z,588.00
2019-05-19T03:42:45.758Z,628.00
2019-05-19T03:43:45.750Z,664.00
2019-05-19T03:44:45.758Z,708.00
2019-05-19T03:45:45.724Z,748.00
2019-05-19T03:46:45.711Z,792.00
2019-05-19T03:47:45.725Z,840.00
2019-05-19T03:48:45.694Z,888.00
2019-05-19T03:49:45.678Z,936.00
2019-05-19T03:50:45.682Z,980.00
2019-05-19T03:51:45.662Z,1036.00
2019-05-19T03:52:45.661Z,1088.00
2019-05-19T03:53:45.655Z,1140.00
2019-05-19T03:54:45.624Z,1196.00
2019-05-19T03:55:45.610Z,1256.00
2019-05-19T03:56:45.599Z,1316.00
2019-05-19T03:57:45.590Z,1384.00
2019-05-19T03:58:45.595Z,1448.00
2019-05-19T03:59:45.565Z,1512.00
2019-05-19T04:00:45.560Z,1580.00
2019-05-19T04:01:45.545Z,1644.00
2019-05-19T04:02:45.534Z,1716.00
2019-05-19T04:03:45.544Z,1784.00
2019-05-19T04:04:45.510Z,1856.00
2019-05-19T04:05:45.508Z,1936.00
2019-05-19T04:06:45.498Z,2016.00
2019-05-19T04:07:45.483Z,2104.00
2019-05-19T04:08:45.469Z,2196.00
2019-05-19T04:09:45.469Z,2288.00
2019-05-19T04:10:45.465Z,2376.00
2019-05-19T04:11:45.436Z,2448.00
2019-05-19T04:12:45.422Z,2536.00
2019-05-19T04:13:45.417Z,2644.00
2019-05-19T04:14:45.426Z,2732.00
2019-05-19T04:15:45.414Z,2472.00
2019-05-19T04:16:45.385Z,2940.00
2019-05-19T04:17:45.373Z,3032.00
2019-05-19T04:18:45.361Z,3184.00
2019-05-19T04:19:45.358Z,3260.00
2019-05-19T04:20:45.352Z,3348.00
2019-05-19T04:21:49.088Z,3376.00
2019-05-19T04:22:45.314Z,3412.00
2019-05-19T04:23:45.308Z,3500.00
2019-05-19T04:24:45.306Z,3536.00
2019-05-19T04:25:45.299Z,3616.00
2019-05-19T04:26:45.273Z,3704.00
2019-05-19T04:27:45.258Z,3772.00
2019-05-19T04:28:45.250Z,3832.00
2019-05-19T04:29:45.235Z,3884.00
2019-05-19T04:30:45.241Z,3928.00
2019-05-19T04:31:45.237Z,3988.00
2019-05-19T04:32:45.200Z,4076.00
2019-05-19T04:33:45.193Z,4160.00
2019-05-19T04:34:45.178Z,4200.00
2019-05-19T04:35:45.188Z,4220.00
2019-05-19T04:36:45.226Z,4332.00
2019-05-19T04:37:45.147Z,4476.00
2019-05-19T04:38:45.136Z,4656.00
2019-05-19T04:39:45.135Z,4908.00
2019-05-19T04:40:45.116Z,5204.00
2019-05-19T04:41:45.115Z,5192.00
2019-05-19T04:42:45.086Z,5320.00
2019-05-19T04:43:45.080Z,5404.00
2019-05-19T04:44:45.066Z,5584.00
2019-05-19T04:45:45.067Z,5708.00
2019-05-19T04:46:45.044Z,5880.00
2019-05-19T04:47:45.032Z,6108.00
2019-05-19T04:48:45.022Z,6376.00
2019-05-19T04:49:45.022Z,6648.00
2019-05-19T04:50:45.037Z,6816.00
2019-05-19T04:51:45.001Z,7132.00
2019-05-19T04:52:44.996Z,7372.00
2019-05-19T04:53:44.986Z,7556.00
2019-05-19T04:54:45.009Z,7524.00
2019-05-19T04:55:44.976Z,7556.00
2019-05-19T04:56:44.972Z,7668.00
2019-05-19T04:57:44.966Z,7840.00
2019-05-19T04:58:44.939Z,8024.00
2019-05-19T04:59:44.897Z,8156.00
2019-05-19T05:00:44.911Z,8288.00
2019-05-19T05:01:44.906Z,8532.00
2019-05-19T05:02:44.898Z,9036.00
2019-05-19T05:03:44.855Z,9504.00
2019-05-19T05:04:44.859Z,10284.00
2019-05-19T05:05:44.837Z,10596.00
2019-05-19T05:06:44.833Z,10896.00
2019-05-19T05:07:44.826Z,12136.00
2019-05-19T05:08:44.802Z,13180.00
2019-05-19T05:09:44.788Z,12836.00
2019-05-19T05:10:44.781Z,12744.00
2019-05-19T05:11:44.766Z,13000.00
2019-05-19T05:12:44.776Z,12544.00
2019-05-19T05:13:44.743Z,12364.00
2019-05-19T05:14:44.732Z,12628.00
2019-05-19T05:15:44.740Z,12436.00
2019-05-19T05:16:44.707Z,12460.00
2019-05-19T05:17:44.730Z,12912.00
2019-05-19T05:18:47.603Z,13328.00
2019-05-19T05:19:44.681Z,13096.00
2019-05-19T05:20:44.699Z,12624.00
2019-05-19T05:21:44.652Z,12020.00
2019-05-19T05:22:44.654Z,12392.00
2019-05-19T05:23:44.656Z,12376.00
2019-05-19T05:24:44.621Z,12668.00
2019-05-19T05:25:44.662Z,13588.00
2019-05-19T05:26:44.598Z,16832.00
2019-05-19T05:27:44.585Z,21728.00
2019-05-19T05:28:44.614Z,23648.00
2019-05-19T05:29:44.589Z,23840.00
2019-05-19T05:30:44.554Z,23712.00
2019-05-19T05:31:44.549Z,24064.00
2019-05-19T05:32:44.537Z,23360.00
2019-05-19T05:33:44.549Z,22880.00
2019-05-19T05:34:44.677Z,22336.00
2019-05-19T05:35:44.517Z,20448.00
2019-05-19T05:36:44.555Z,18272.00
2019-05-19T05:37:44.474Z,20032.00
2019-05-19T05:38:44.469Z,18272.00
2019-05-19T05:39:44.473Z,16544.00
2019-05-19T05:40:44.443Z,17568.00
2019-05-19T05:41:44.439Z,20096.00
2019-05-19T05:42:44.424Z,18272.00
2019-05-19T05:43:44.422Z,16704.00
2019-05-19T05:44:44.407Z,17216.00
2019-05-19T05:45:44.406Z,18240.00
2019-05-19T05:46:44.371Z,16256.00
2019-05-19T05:47:44.365Z,14112.00
2019-05-19T05:48:47.033Z,14348.00
2019-05-19T05:49:44.360Z,14304.00
2019-05-19T05:50:44.341Z,14240.00
2019-05-19T05:51:44.323Z,14172.00
2019-05-19T05:52:44.305Z,14872.00
2019-05-19T05:53:44.293Z,14908.00
2019-05-19T05:54:44.308Z,15656.00
2019-05-19T05:55:44.276Z,16288.00
2019-05-19T05:56:44.257Z,16128.00
2019-05-19T05:57:44.251Z,16576.00
2019-05-19T05:58:44.237Z,17088.00
2019-05-19T05:59:44.223Z,17280.00
2019-05-19T06:00:44.225Z,16448.00
2019-05-19T06:01:44.202Z,16416.00
2019-05-19T06:02:44.197Z,16448.00
2019-05-19T06:03:44.182Z,15696.00
2019-05-19T06:04:44.187Z,16224.00
2019-05-19T06:05:44.207Z,16704.00
2019-05-19T06:06:45.905Z,16224.00
2019-05-19T06:07:44.169Z,16512.00
2019-05-19T06:08:44.129Z,16448.00
2019-05-19T06:09:44.117Z,16116.00
2019-05-19T06:10:44.250Z,16188.00
2019-05-19T06:11:44.091Z,16160.00
2019-05-19T06:12:44.082Z,16168.00
2019-05-19T06:13:44.086Z,16220.00
2019-05-19T06:14:44.057Z,16244.00
2019-05-19T06:15:44.079Z,16212.00
2019-05-19T06:16:44.041Z,16260.00
2019-05-19T06:17:44.025Z,16316.00
2019-05-19T06:18:44.019Z,16480.00
2019-05-19T06:19:44.009Z,16512.00
2019-05-19T06:20:43.993Z,16576.00
2019-05-19T06:21:43.996Z,16608.00
2019-05-19T06:22:55.993Z,16640.00
2019-05-19T06:23:44.991Z,16672.00
2019-05-19T06:24:43.959Z,16800.00
2019-05-19T06:25:43.952Z,17088.00
2019-05-19T06:26:43.933Z,17376.00
2019-05-19T06:27:43.921Z,17760.00
2019-05-19T06:28:43.908Z,18560.00
2019-05-19T06:29:43.902Z,19424.00
2019-05-19T06:30:43.931Z,20288.00
2019-05-19T06:31:43.886Z,21088.00
2019-05-19T06:32:43.873Z,21184.00
2019-05-19T06:33:43.848Z,22432.00
2019-05-19T06:34:43.839Z,23040.00
2019-05-19T06:35:43.861Z,24480.00
2019-05-19T06:36:43.839Z,25632.00
2019-05-19T06:37:43.809Z,26208.00
2019-05-19T06:38:43.816Z,25280.00
2019-05-19T06:39:43.784Z,25056.00
2019-05-19T06:40:43.771Z,25248.00
2019-05-19T06:41:43.781Z,26016.00
2019-05-19T06:42:43.830Z,26880.00
2019-05-19T06:43:43.741Z,26784.00
2019-05-19T06:44:43.737Z,28288.00
2019-05-19T06:45:43.719Z,29696.00
2019-05-19T06:46:43.729Z,30048.00
2019-05-19T06:47:43.695Z,28992.00
2019-05-19T06:48:43.682Z,27648.00
2019-05-19T06:49:43.677Z,26048.00
2019-05-19T06:50:43.660Z,25184.00
2019-05-19T06:51:43.668Z,25376.00
2019-05-19T06:52:43.636Z,24480.00
2019-05-19T06:53:43.631Z,24384.00
2019-05-19T06:54:43.621Z,23776.00
2019-05-19T06:55:43.614Z,23552.00
2019-05-19T06:56:43.613Z,24064.00
2019-05-19T06:57:43.598Z,24832.00
2019-05-19T06:58:43.573Z,25792.00
2019-05-19T06:59:43.572Z,25408.00
2019-05-19T07:00:43.552Z,24416.00
2019-05-19T07:01:43.539Z,24256.00
2019-05-19T07:02:43.533Z,24448.00
2019-05-19T07:03:43.525Z,25120.00
2019-05-19T07:04:43.502Z,26208.00
2019-05-19T07:05:43.714Z,27648.00
2019-05-19T07:06:43.537Z,29504.00
2019-05-19T07:07:43.483Z,31840.00
2019-05-19T07:08:43.470Z,29312.00
2019-05-19T07:09:57.522Z,28352.00
2019-05-19T07:10:44.439Z,27168.00
2019-05-19T07:11:43.447Z,26080.00
2019-05-19T07:12:43.431Z,25888.00
2019-05-19T07:13:43.418Z,25824.00
2019-05-19T07:14:43.395Z,25888.00
2019-05-19T07:15:43.407Z,25120.00
2019-05-19T07:16:43.376Z,25856.00
2019-05-19T07:17:43.385Z,25824.00
2019-05-19T07:18:43.363Z,25856.00
2019-05-19T07:19:43.341Z,27776.00
2019-05-19T07:20:43.346Z,27040.00
2019-05-19T07:21:43.324Z,26144.00
2019-05-19T07:22:43.344Z,26816.00
2019-05-19T07:23:43.313Z,28640.00
2019-05-19T07:24:43.292Z,34016.00
2019-05-19T07:25:43.275Z,38336.00
2019-05-19T07:26:43.266Z,38752.00
2019-05-19T07:27:43.251Z,42304.00
2019-05-19T07:28:43.275Z,42432.00
2019-05-19T07:29:43.235Z,46592.00
2019-05-19T07:30:43.222Z,51008.00
2019-05-19T07:31:43.206Z,51328.00
2019-05-19T07:32:43.196Z,47456.00
2019-05-19T07:33:43.185Z,44640.00
2019-05-19T07:34:43.200Z,44384.00
2019-05-19T07:35:43.167Z,49472.00
2019-05-19T07:36:43.158Z,64384.00
2019-05-19T07:37:43.171Z,79200.00
2019-05-19T07:38:43.133Z,81600.00
2019-05-19T07:39:43.136Z,82304.00
2019-05-19T07:40:43.115Z,81408.00
2019-05-19T07:41:43.099Z,85728.00
2019-05-19T07:42:43.091Z,91200.00
2019-05-19T07:43:43.080Z,92640.00
2019-05-19T07:44:45.314Z,95392.00
2019-05-19T07:45:43.086Z,88640.00
2019-05-19T07:46:43.045Z,80416.00
2019-05-19T07:47:43.036Z,86528.00
2019-05-19T07:48:43.026Z,66880.00
2019-05-19T07:49:43.022Z,67040.00
2019-05-19T07:50:43.005Z,72640.00
2019-05-19T07:51:43.019Z,83872.00
2019-05-19T07:52:42.997Z,91616.00
2019-05-19T07:53:43.480Z,90144.00
2019-05-19T07:54:42.960Z,82496.00
2019-05-19T07:55:42.975Z,75264.00
2019-05-19T07:56:42.955Z,78976.00
2019-05-19T07:57:42.934Z,79296.00
2019-05-19T07:58:42.921Z,79456.00
2019-05-19T07:59:42.914Z,87552.00
2019-05-19T08:00:42.962Z,90912.00
2019-05-19T08:01:42.911Z,75424.00
2019-05-19T08:02:42.879Z,63872.00
2019-05-19T08:03:42.867Z,80800.00
2019-05-19T08:04:42.862Z,78592.00
2019-05-19T08:05:42.863Z,89120.00
2019-05-19T08:06:42.844Z,91520.00
2019-05-19T08:07:42.837Z,93824.00
2019-05-19T08:08:42.823Z,95072.00
2019-05-19T08:09:42.806Z,96448.00
2019-05-19T08:10:42.810Z,94688.00
2019-05-19T08:11:42.806Z,90560.00
2019-05-19T08:12:42.778Z,76800.00
2019-05-19T08:13:42.765Z,81248.00
2019-05-19T08:14:42.782Z,74784.00
2019-05-19T08:15:42.744Z,68480.00
2019-05-19T08:16:42.738Z,62784.00
2019-05-19T08:17:42.746Z,82112.00
2019-05-19T08:18:42.717Z,61280.00
2019-05-19T08:19:42.708Z,70240.00
2019-05-19T08:20:42.709Z,64288.00
2019-05-19T08:21:42.687Z,66336.00
2019-05-19T08:22:42.675Z,75488.00
2019-05-19T08:23:58.564Z,45536.00
2019-05-19T08:24:43.655Z,51360.00
2019-05-19T08:25:42.647Z,52256.00
2019-05-19T08:26:42.687Z,55872.00
2019-05-19T08:27:42.628Z,60992.00
2019-05-19T08:28:42.626Z,75392.00
2019-05-19T08:29:42.605Z,76480.00
2019-05-19T08:30:42.594Z,71936.00
2019-05-19T08:31:42.588Z,84704.00
2019-05-19T08:32:42.627Z,86400.00
2019-05-19T08:33:42.585Z,89472.00
2019-05-19T08:34:42.549Z,95040.00
2019-05-19T08:35:42.543Z,88928.00
2019-05-19T08:36:42.554Z,88480.00
2019-05-19T08:37:42.531Z,91296.00
2019-05-19T08:38:42.521Z,92288.00
2019-05-19T08:39:42.504Z,91360.00
2019-05-19T08:40:42.493Z,84032.00
2019-05-19T08:41:42.482Z,81792.00
2019-05-19T08:42:42.508Z,63680.00
2019-05-19T08:43:42.465Z,60224.00
2019-05-19T08:44:42.452Z,66976.00
2019-05-19T08:45:42.448Z,76000.00
2019-05-19T08:46:42.429Z,69760.00
2019-05-19T08:47:42.427Z,69184.00
2019-05-19T08:48:42.421Z,62240.00
2019-05-19T08:49:42.401Z,59840.00
2019-05-19T08:50:42.386Z,45984.00
2019-05-19T08:51:42.418Z,38560.00
2019-05-19T08:52:42.373Z,41376.00
2019-05-19T08:53:42.382Z,49568.00
2019-05-19T08:54:42.346Z,71392.00
2019-05-19T08:55:42.337Z,83648.00
2019-05-19T08:56:42.336Z,79200.00
2019-05-19T08:57:42.329Z,70528.00
2019-05-19T08:58:42.320Z,53600.00
2019-05-19T08:59:42.293Z,43520.00
2019-05-19T09:00:42.292Z,42048.00
2019-05-19T09:01:42.279Z,49664.00
2019-05-19T09:02:42.267Z,52224.00
2019-05-19T09:03:42.273Z,73344.00
2019-05-19T09:04:42.264Z,80576.00
2019-05-19T09:05:42.249Z,71296.00
2019-05-19T09:06:42.231Z,83904.00
2019-05-19T09:07:42.230Z,80512.00
2019-05-19T09:08:42.203Z,87808.00
2019-05-19T09:09:42.209Z,85600.00
2019-05-19T09:10:42.188Z,96768.00
2019-05-19T09:11:42.170Z,106528.00
2019-05-19T09:12:42.168Z,106560.00
2019-05-19T09:13:42.160Z,108416.00
2019-05-19T09:14:42.162Z,109248.00
2019-05-19T09:15:42.135Z,114656.00
2019-05-19T09:16:42.132Z,106400.00
2019-05-19T09:17:42.114Z,99360.00
2019-05-19T09:18:42.120Z,91488.00
2019-05-19T09:19:42.111Z,111136.00
2019-05-19T09:20:42.107Z,95712.00
2019-05-19T09:21:42.111Z,68768.00
2019-05-19T09:22:42.064Z,93248.00
2019-05-19T09:23:42.055Z,82144.00
2019-05-19T09:24:42.047Z,73760.00
2019-05-19T09:25:42.070Z,103872.00
2019-05-19T09:26:42.025Z,96320.00
2019-05-19T09:27:42.024Z,70816.00
2019-05-19T09:28:42.010Z,87200.00
2019-05-19T09:29:42.005Z,93664.00
2019-05-19T09:30:41.996Z,72032.00
2019-05-19T09:31:41.988Z,84256.00
2019-05-19T09:32:41.974Z,94816.00
2019-05-19T09:33:41.960Z,64928.00
2019-05-19T09:34:41.946Z,73984.00
2019-05-19T09:35:41.951Z,87200.00
2019-05-19T09:36:41.930Z,79392.00
2019-05-19T09:37:41.927Z,73536.00
2019-05-19T09:38:41.911Z,80864.00
2019-05-19T09:39:41.898Z,87456.00
2019-05-19T09:40:41.900Z,84672.00
2019-05-19T09:41:41.879Z,82304.00
2019-05-19T09:42:41.883Z,89632.00
2019-05-19T09:43:41.866Z,81984.00
2019-05-19T09:44:41.849Z,119008.00
2019-05-19T09:45:41.856Z,115328.00
2019-05-19T09:46:41.844Z,117728.00
2019-05-19T09:47:41.828Z,114528.00
2019-05-19T09:48:41.819Z,109184.00
2019-05-19T09:49:41.804Z,102176.00
2019-05-19T09:50:41.800Z,110624.00
2019-05-19T09:51:41.796Z,119168.00
2019-05-19T09:52:41.783Z,122592.00
2019-05-19T09:53:41.771Z,123200.00
2019-05-19T09:54:45.317Z,123168.00
2019-05-19T09:55:41.748Z,118208.00
2019-05-19T09:56:41.751Z,116096.00
2019-05-19T09:57:41.732Z,112288.00
2019-05-19T09:58:41.767Z,109856.00
2019-05-19T09:59:41.716Z,98944.00
2019-05-19T10:00:41.716Z,100224.00
2019-05-19T10:01:41.712Z,98080.00
2019-05-19T10:02:41.703Z,95168.00
2019-05-19T10:03:41.679Z,104096.00
2019-05-19T10:04:41.668Z,92320.00
2019-05-19T10:05:41.659Z,96704.00
2019-05-19T10:06:41.754Z,95936.00
2019-05-19T10:07:41.681Z,97760.00
2019-05-19T10:08:41.677Z,99168.00
2019-05-19T10:09:41.640Z,97440.00
2019-05-19T10:10:41.628Z,98592.00
2019-05-19T10:11:41.618Z,98144.00
2019-05-19T10:12:41.666Z,99616.00
2019-05-19T10:13:41.620Z,105920.00
2019-05-19T10:14:41.587Z,99808.00
2019-05-19T10:15:41.610Z,100928.00
2019-05-19T10:16:41.571Z,106272.00
2019-05-19T10:17:41.569Z,108224.00
2019-05-19T10:18:41.549Z,107904.00
2019-05-19T10:19:41.541Z,117664.00
2019-05-19T10:20:41.534Z,90816.00
2019-05-19T10:21:41.527Z,117824.00
2019-05-19T10:22:41.530Z,115680.00
2019-05-19T10:23:41.507Z,118976.00
2019-05-19T10:24:56.339Z,96864.00
2019-05-19T10:25:42.496Z,49312.00
2019-05-19T10:26:41.482Z,48128.00
2019-05-19T10:27:41.489Z,30432.00
2019-05-19T10:28:41.467Z,30752.00
2019-05-19T10:29:41.456Z,31488.00
2019-05-19T10:30:41.458Z,36384.00
2019-05-19T10:31:41.438Z,57792.00
2019-05-19T10:32:41.466Z,56192.00
2019-05-19T10:33:41.429Z,64096.00
2019-05-19T10:34:41.406Z,60704.00
2019-05-19T10:35:41.399Z,54272.00
2019-05-19T10:36:41.397Z,52000.00
2019-05-19T10:37:41.382Z,57504.00
2019-05-19T10:38:41.381Z,66176.00
2019-05-19T10:39:41.358Z,63808.00
2019-05-19T10:40:41.436Z,75232.00
2019-05-19T10:41:41.345Z,55872.00
2019-05-19T10:42:41.346Z,38432.00
2019-05-19T10:43:41.335Z,46208.00
2019-05-19T10:44:41.315Z,49728.00
2019-05-19T10:45:41.308Z,89600.00
2019-05-19T10:46:41.297Z,117984.00
2019-05-19T10:47:41.280Z,125184.00
2019-05-19T10:48:41.293Z,125856.00
2019-05-19T10:49:43.127Z,131584.00
2019-05-19T10:50:41.257Z,122432.00
2019-05-19T10:51:41.243Z,102912.00
2019-05-19T10:52:41.254Z,119424.00
2019-05-19T10:53:41.230Z,115360.00
2019-05-19T10:54:41.233Z,82880.00
2019-05-19T10:55:41.206Z,37888.00
2019-05-19T10:56:41.195Z,22656.00
2019-05-19T10:57:41.186Z,21472.00
2019-05-19T10:58:41.180Z,22240.00
2019-05-19T10:59:41.166Z,24896.00
2019-05-19T11:00:41.169Z,30496.00
2019-05-19T11:01:41.150Z,38144.00
2019-05-19T11:02:41.139Z,97888.00
2019-05-19T11:03:41.134Z,82016.00
2019-05-19T11:04:41.122Z,72672.00
2019-05-19T11:05:41.121Z,74496.00
2019-05-19T11:06:41.117Z,76256.00
2019-05-19T11:07:41.096Z,76704.00
2019-05-19T11:08:41.074Z,84256.00
2019-05-19T11:09:41.071Z,107168.00
2019-05-19T11:10:41.076Z,113568.00
2019-05-19T11:11:41.055Z,124512.00
2019-05-19T11:12:41.038Z,133760.00
2019-05-19T11:13:41.030Z,134208.00
2019-05-19T11:14:41.021Z,123296.00
2019-05-19T11:15:41.028Z,111968.00
2019-05-19T11:16:41.003Z,87040.00
2019-05-19T11:17:40.992Z,96224.00
2019-05-19T11:18:40.981Z,47584.00
2019-05-19T11:19:40.973Z,44352.00
2019-05-19T11:20:40.972Z,46944.00
2019-05-19T11:21:40.963Z,103776.00
2019-05-19T11:22:40.946Z,104032.00
2019-05-19T11:23:40.974Z,118976.00
2019-05-19T11:24:40.928Z,125312.00
2019-05-19T11:25:51.223Z,132672.00
2019-05-19T11:26:41.955Z,106976.00
2019-05-19T11:27:40.896Z,120256.00
2019-05-19T11:28:40.896Z,110176.00
2019-05-19T11:29:40.883Z,106272.00
2019-05-19T11:30:40.872Z,109408.00
2019-05-19T11:31:40.877Z,129152.00
2019-05-19T11:32:40.874Z,135488.00
2019-05-19T11:33:40.845Z,89472.00
2019-05-19T11:34:40.833Z,57632.00
2019-05-19T11:35:40.828Z,65312.00
2019-05-19T11:36:40.860Z,78720.00
2019-05-19T11:37:40.806Z,70624.00
2019-05-19T11:38:40.798Z,73696.00
2019-05-19T11:39:40.790Z,108416.00
2019-05-19T11:40:40.805Z,76000.00
2019-05-19T11:41:40.771Z,62784.00
2019-05-19T11:42:40.778Z,63232.00
2019-05-19T11:43:40.767Z,109632.00
2019-05-19T11:44:40.752Z,91104.00
2019-05-19T11:45:40.732Z,89056.00
2019-05-19T11:46:40.732Z,87904.00
2019-05-19T11:47:40.765Z,67264.00
2019-05-19T11:48:40.716Z,95232.00
2019-05-19T11:49:40.702Z,97344.00
2019-05-19T11:50:42.175Z,45248.00
2019-05-19T11:51:40.677Z,51776.00
2019-05-19T11:52:40.679Z,38432.00
2019-05-19T11:53:40.679Z,58336.00
2019-05-19T11:54:40.646Z,34080.00
2019-05-19T11:55:40.663Z,29920.00
2019-05-19T11:56:40.628Z,33984.00
2019-05-19T11:57:40.625Z,31232.00
2019-05-19T11:58:40.610Z,20640.00
2019-05-19T11:59:40.619Z,18496.00
2019-05-19T12:00:40.651Z,16768.00
2019-05-19T12:01:40.578Z,15392.00
2019-05-19T12:02:40.567Z,15032.00
2019-05-19T12:03:40.561Z,14352.00
2019-05-19T12:04:40.551Z,13608.00
2019-05-19T12:05:40.554Z,13300.00
2019-05-19T12:06:40.532Z,13280.00
2019-05-19T12:07:40.532Z,12936.00
2019-05-19T12:08:40.528Z,12468.00
2019-05-19T12:09:40.501Z,12268.00